Time;durP1;ratioP1;P1;durP2;ratioP2;P2;SDS_P1;SDS_P2;PMS_P1;PMS_P2;Temp;Humidity;BMP_temperature;BMP_pressure;BME280_temperature;BME280_humidity;BME280_pressure;Samples;Min_cycle;Max_cycle;Signal;HPM_P1;HPM_P2
2021/07/16 00:00:07;;;;;;;12.20;7.65;;;18.30;99.90;;;;;;4977286;28;20073;-89
2021/07/16 00:02:32;;;;;;;12.30;7.17;;;18.30;99.90;;;;;;4977297;28;20037;-89
2021/07/16 00:04:58;;;;;;;17.95;8.02;;;18.30;99.90;;;;;;4977165;28;20703;-89
2021/07/16 00:07:24;;;;;;;10.57;7.40;;;18.30;99.90;;;;;;4957752;28;20481;-89
2021/07/16 00:09:49;;;;;;;11.65;6.95;;;18.30;99.90;;;;;;4968803;28;20027;-89
2021/07/16 00:12:15;;;;;;;12.73;7.75;;;18.30;99.90;;;;;;4960517;28;20019;-89
2021/07/16 00:14:41;;;;;;;9.50;6.82;;;18.30;99.90;;;;;;4961040;28;20034;-90
2021/07/16 00:17:06;;;;;;;10.68;6.30;;;18.30;99.90;;;;;;4942498;28;20170;-90
2021/07/16 00:19:32;;;;;;;10.43;6.53;;;18.30;99.90;;;;;;4960945;28;20192;-91
2021/07/16 00:21:58;;;;;;;12.38;6.75;;;18.20;99.90;;;;;;4960655;28;20038;-90
2021/07/16 00:24:23;;;;;;;10.38;6.95;;;18.20;99.90;;;;;;4960463;28;20077;-90
2021/07/16 00:26:49;;;;;;;11.50;7.38;;;18.30;99.90;;;;;;4957600;28;20122;-90
2021/07/16 00:29:15;;;;;;;13.50;6.75;;;18.30;99.90;;;;;;4960529;28;20023;-90
2021/07/16 00:31:40;;;;;;;10.45;6.38;;;18.20;99.90;;;;;;4960981;28;20054;-91
2021/07/16 00:34:07;;;;;;;9.48;6.25;;;18.20;99.90;;;;;;4959720;28;20030;-90
2021/07/16 00:36:32;;;;;;;14.57;7.13;;;18.20;99.90;;;;;;4957613;28;20030;-90
2021/07/16 00:38:58;;;;;;;11.38;7.20;;;18.20;99.90;;;;;;4952299;28;20042;-88
2021/07/16 00:41:24;;;;;;;11.15;6.70;;;18.20;99.90;;;;;;4965626;28;20088;-88
2021/07/16 00:43:50;;;;;;;9.82;6.72;;;18.20;99.90;;;;;;4983863;28;20455;-89
2021/07/16 00:46:15;;;;;;;11.23;7.47;;;18.20;99.90;;;;;;4985047;28;20384;-88
2021/07/16 00:48:41;;;;;;;9.38;6.57;;;18.20;99.90;;;;;;4980787;28;20018;-90
2021/07/16 00:51:07;;;;;;;11.35;6.70;;;18.10;99.90;;;;;;4995395;28;20480;-89
2021/07/16 00:53:32;;;;;;;12.00;6.60;;;18.10;99.90;;;;;;4957664;28;20230;-90
2021/07/16 00:55:58;;;;;;;11.40;7.38;;;18.10;99.90;;;;;;4943050;28;20040;-89
2021/07/16 00:58:24;;;;;;;14.05;7.25;;;18.10;99.90;;;;;;4992598;28;20129;-90
2021/07/16 01:00:50;;;;;;;15.23;8.25;;;18.10;99.90;;;;;;4970437;28;20042;-90
2021/07/16 01:03:15;;;;;;;10.27;6.95;;;18.10;99.90;;;;;;4946539;28;20022;-90
2021/07/16 01:05:42;;;;;;;10.07;7.10;;;18.10;99.90;;;;;;4956855;28;20117;-90
2021/07/16 01:08:08;;;;;;;12.90;7.90;;;18.10;99.90;;;;;;4976311;28;20095;-91
2021/07/16 01:10:35;;;;;;;13.43;8.07;;;18.10;99.90;;;;;;4976244;28;20448;-90
2021/07/16 01:13:01;;;;;;;13.05;8.27;;;18.10;99.90;;;;;;4975939;28;20365;-90
2021/07/16 01:15:30;;;;;;;13.32;8.00;;;18.10;99.90;;;;;;4976274;28;20030;-90
2021/07/16 01:17:56;;;;;;;13.43;8.23;;;18.10;99.90;;;;;;4946355;28;20126;-91
2021/07/16 01:20:30;;;;;;;13.10;7.50;;;18.10;99.90;;;;;;4978865;28;20023;-91
2021/07/16 01:22:57;;;;;;;12.70;8.00;;;18.10;99.90;;;;;;4993471;28;20085;-91
2021/07/16 01:25:26;;;;;;;10.77;7.70;;;18.10;99.90;;;;;;4962472;28;20475;-91
2021/07/16 01:27:57;;;;;;;9.88;7.22;;;18.10;99.90;;;;;;4957311;28;20465;-91
2021/07/16 01:30:26;;;;;;;12.23;8.23;;;18.10;99.90;;;;;;4974373;28;20018;-90
2021/07/16 01:32:52;;;;;;;14.63;7.68;;;18.10;99.90;;;;;;4975840;28;20046;-90
2021/07/16 01:35:20;;;;;;;10.52;7.13;;;18.00;99.90;;;;;;4946449;28;20023;-91
2021/07/16 01:37:46;;;;;;;12.13;8.05;;;18.00;99.90;;;;;;4976072;28;20112;-90
2021/07/16 01:40:17;;;;;;;15.45;8.57;;;18.00;99.90;;;;;;4978006;28;20027;-90
2021/07/16 01:42:48;;;;;;;11.73;8.15;;;18.00;99.90;;;;;;4976067;28;20069;-90
2021/07/16 01:45:27;;;;;;;16.15;8.60;;;18.00;99.90;;;;;;4976727;28;20022;-90
2021/07/16 01:48:11;;;;;;;12.90;7.78;;;18.00;99.90;;;;;;4979775;28;20046;-90
2021/07/16 01:50:38;;;;;;;15.43;8.45;;;18.00;99.90;;;;;;4979012;28;20026;-91
2021/07/16 01:53:04;;;;;;;14.48;7.93;;;18.00;99.90;;;;;;4979444;28;20045;-90
2021/07/16 01:55:31;;;;;;;13.50;8.63;;;17.90;99.90;;;;;;4963220;28;20026;-90
2021/07/16 01:57:59;;;;;;;13.90;8.43;;;17.90;99.90;;;;;;4963318;28;20029;-91
2021/07/16 02:00:32;;;;;;;13.25;8.25;;;18.00;99.90;;;;;;4979063;28;20018;-90
2021/07/16 02:03:00;;;;;;;15.80;8.27;;;17.90;99.90;;;;;;4996843;28;20035;-90
2021/07/16 02:05:27;;;;;;;19.33;9.20;;;17.90;99.90;;;;;;4979251;28;20025;-89
2021/07/16 02:07:56;;;;;;;15.38;9.15;;;17.90;99.90;;;;;;4959639;28;20050;-89
2021/07/16 02:10:22;;;;;;;14.00;8.98;;;17.90;99.90;;;;;;4973905;28;20118;-90
2021/07/16 02:12:48;;;;;;;16.67;9.45;;;17.90;99.90;;;;;;4979376;28;20045;-90
2021/07/16 02:15:28;;;;;;;14.93;8.63;;;17.90;99.90;;;;;;4950557;28;20027;-89
2021/07/16 02:17:54;;;;;;;13.10;8.23;;;17.90;99.90;;;;;;4966587;28;20045;-90
2021/07/16 02:20:36;;;;;;;19.30;9.10;;;17.90;99.90;;;;;;4978880;28;20480;-89
2021/07/16 02:23:06;;;;;;;14.90;8.82;;;17.80;99.90;;;;;;4966674;28;20023;-89
2021/07/16 02:25:32;;;;;;;13.40;8.38;;;17.80;99.90;;;;;;4979171;28;20018;-91
2021/07/16 02:28:35;;;;;;;16.80;9.10;;;17.80;99.90;;;;;;4943614;28;20588;-90
2021/07/16 02:31:02;;;;;;;15.80;8.32;;;17.80;99.90;;;;;;4993857;28;20037;-91
2021/07/16 02:33:28;;;;;;;14.38;8.48;;;17.80;99.90;;;;;;4962871;28;20072;-90
2021/07/16 02:35:54;;;;;;;12.55;8.35;;;17.80;99.90;;;;;;4963107;28;20034;-92
2021/07/16 02:38:23;;;;;;;16.65;8.68;;;17.80;99.90;;;;;;4979020;28;20181;-90
2021/07/16 02:40:49;;;;;;;15.13;9.00;;;17.80;99.90;;;;;;4978450;28;20030;-90
2021/07/16 02:43:15;;;;;;;14.98;8.25;;;17.80;99.90;;;;;;4962824;28;20105;-90
2021/07/16 02:45:43;;;;;;;15.73;8.80;;;17.70;99.90;;;;;;4978715;28;20472;-91
2021/07/16 02:48:08;;;;;;;15.43;8.75;;;17.70;99.90;;;;;;4962939;28;20045;-90
2021/07/16 02:50:37;;;;;;;15.05;8.35;;;17.70;99.90;;;;;;4978679;28;20567;-91
2021/07/16 02:53:07;;;;;;;16.05;8.85;;;17.70;99.90;;;;;;4979673;28;20037;-90
2021/07/16 02:55:34;;;;;;;16.42;9.70;;;17.70;99.90;;;;;;4978989;28;20030;-90
2021/07/16 02:58:00;;;;;;;11.38;7.80;;;17.70;99.90;;;;;;4977352;28;20045;-89
2021/07/16 03:00:29;;;;;;;13.82;8.48;;;17.70;99.90;;;;;;4978181;28;20488;-90
2021/07/16 03:02:56;;;;;;;14.73;9.25;;;17.70;99.90;;;;;;4977885;28;20440;-90
2021/07/16 03:05:30;;;;;;;18.35;9.15;;;17.60;99.90;;;;;;4979908;28;20027;-90
2021/07/16 03:07:57;;;;;;;14.90;8.50;;;17.70;99.90;;;;;;4979050;28;20028;-90
2021/07/16 03:10:28;;;;;;;15.00;8.15;;;17.70;99.90;;;;;;4963306;28;20037;-89
2021/07/16 03:12:55;;;;;;;15.30;8.18;;;17.60;99.90;;;;;;4970460;28;20109;-89
2021/07/16 03:15:22;;;;;;;13.35;7.50;;;17.60;99.90;;;;;;4963634;28;20066;-89
2021/07/16 03:17:49;;;;;;;14.43;7.30;;;17.60;99.90;;;;;;4962864;28;20045;-88
2021/07/16 03:20:18;;;;;;;14.95;7.72;;;17.60;99.90;;;;;;4996447;28;20053;-89
2021/07/16 03:22:44;;;;;;;15.95;7.50;;;17.60;99.90;;;;;;4979725;28;20109;-89
2021/07/16 03:25:13;;;;;;;16.15;6.80;;;17.50;99.90;;;;;;4961649;28;20117;-89
2021/07/16 03:27:39;;;;;;;17.83;8.52;;;17.50;99.90;;;;;;4978299;28;20475;-89
2021/07/16 03:30:08;;;;;;;11.52;6.68;;;17.50;99.90;;;;;;4961680;28;20120;-89
2021/07/16 03:32:34;;;;;;;15.50;7.25;;;17.50;99.90;;;;;;4978029;28;20086;-89
2021/07/16 03:35:00;;;;;;;13.30;7.18;;;17.50;99.90;;;;;;4959890;28;20054;-89
2021/07/16 03:37:26;;;;;;;16.27;7.93;;;17.50;99.90;;;;;;4977849;28;20448;-89
2021/07/16 03:39:51;;;;;;;14.88;7.82;;;17.50;99.90;;;;;;4961873;28;20380;-89
2021/07/16 03:42:18;;;;;;;12.63;6.90;;;17.50;99.90;;;;;;4977966;28;20112;-89
2021/07/16 03:44:44;;;;;;;15.77;7.75;;;17.40;99.90;;;;;;4964784;28;20054;-89
2021/07/16 03:47:14;;;;;;;15.13;8.13;;;17.40;99.90;;;;;;4964122;28;20063;-89
2021/07/16 03:49:40;;;;;;;14.77;6.93;;;17.50;99.90;;;;;;4961558;28;20030;-90
2021/07/16 03:52:06;;;;;;;11.15;6.63;;;17.40;99.90;;;;;;4961555;28;20053;-90
2021/07/16 03:54:32;;;;;;;13.60;6.68;;;17.40;99.90;;;;;;4977798;28;20080;-90
2021/07/16 03:56:57;;;;;;;16.65;7.85;;;17.40;99.90;;;;;;4961372;28;20057;-89
2021/07/16 03:59:23;;;;;;;15.38;7.40;;;17.40;99.90;;;;;;4961320;28;20031;-90
2021/07/16 04:01:49;;;;;;;12.85;6.53;;;17.40;99.90;;;;;;4961462;28;20066;-90
2021/07/16 04:04:15;;;;;;;13.15;6.88;;;17.40;99.90;;;;;;4977335;28;20026;-90
2021/07/16 04:06:49;;;;;;;12.57;6.47;;;17.40;99.90;;;;;;4961080;28;20022;-89
2021/07/16 04:09:26;;;;;;;15.32;8.02;;;17.30;99.90;;;;;;4963025;28;20019;-89
2021/07/16 04:12:13;;;;;;;11.32;6.78;;;17.40;99.90;;;;;;4978903;28;20151;-89
2021/07/16 04:14:42;;;;;;;12.25;7.35;;;17.40;99.90;;;;;;4963717;28;20023;-90
2021/07/16 04:17:10;;;;;;;15.65;7.47;;;17.30;99.90;;;;;;4977012;28;20219;-89
2021/07/16 04:19:36;;;;;;;11.38;6.78;;;17.30;99.90;;;;;;4976860;28;20115;-89
2021/07/16 04:22:03;;;;;;;19.55;7.50;;;17.30;99.90;;;;;;4976848;28;20026;-88
2021/07/16 04:24:28;;;;;;;15.88;7.65;;;17.30;99.90;;;;;;4947317;28;20476;-89
2021/07/16 04:26:54;;;;;;;16.75;7.50;;;17.30;99.90;;;;;;4961027;28;20021;-88
2021/07/16 04:29:20;;;;;;;15.60;6.82;;;17.30;99.90;;;;;;4947025;28;20559;-88
2021/07/16 04:31:45;;;;;;;12.68;6.38;;;17.30;99.90;;;;;;4957374;28;20073;-89
2021/07/16 04:34:11;;;;;;;14.77;7.95;;;17.30;99.90;;;;;;4957776;28;20031;-88
2021/07/16 04:36:37;;;;;;;16.65;7.68;;;17.30;99.90;;;;;;4960698;28;20022;-90
2021/07/16 04:39:03;;;;;;;14.00;7.57;;;17.30;99.90;;;;;;4947042;28;20030;-88
2021/07/16 04:41:28;;;;;;;12.90;7.13;;;17.30;99.90;;;;;;4960575;28;20117;-90
2021/07/16 04:43:56;;;;;;;12.48;6.90;;;17.30;99.90;;;;;;4960624;28;20022;-89
2021/07/16 04:46:22;;;;;;;11.35;6.32;;;17.30;99.90;;;;;;4976775;28;20022;-89
2021/07/16 04:48:48;;;;;;;14.00;6.78;;;17.30;99.90;;;;;;4976941;28;20027;-89
2021/07/16 04:51:24;;;;;;;15.30;6.82;;;17.30;99.90;;;;;;4960582;28;20030;-90
2021/07/16 04:53:54;;;;;;;10.90;6.53;;;17.30;99.90;;;;;;4960653;28;20030;-89
2021/07/16 04:56:20;;;;;;;13.18;6.32;;;17.30;99.90;;;;;;4992826;28;20129;-89
2021/07/16 04:58:47;;;;;;;14.20;6.05;;;17.30;99.90;;;;;;4976709;28;20033;-89
2021/07/16 05:01:12;;;;;;;16.63;6.63;;;17.30;99.90;;;;;;4960186;28;20092;-89
2021/07/16 05:03:38;;;;;;;13.82;6.13;;;17.30;99.90;;;;;;4976535;28;20030;-89
2021/07/16 05:06:03;;;;;;;15.25;6.90;;;17.20;99.90;;;;;;4960403;28;20487;-89
2021/07/16 05:08:32;;;;;;;17.80;6.50;;;17.20;99.90;;;;;;4960232;28;20034;-89
2021/07/16 05:10:58;;;;;;;12.40;6.20;;;17.20;99.90;;;;;;4959978;28;20039;-89
2021/07/16 05:13:25;;;;;;;11.40;5.90;;;17.30;99.90;;;;;;4960283;28;20503;-90
2021/07/16 05:15:51;;;;;;;15.32;5.85;;;17.20;99.90;;;;;;4960378;28;20047;-90
2021/07/16 05:18:17;;;;;;;15.50;5.78;;;17.20;99.90;;;;;;4960088;28;20038;-90
2021/07/16 05:20:44;;;;;;;13.10;5.85;;;17.30;99.90;;;;;;4962405;28;20026;-90
2021/07/16 05:23:09;;;;;;;15.15;6.57;;;17.30;99.90;;;;;;4980468;28;20025;-90
2021/07/16 05:25:35;;;;;;;13.60;6.32;;;17.20;99.90;;;;;;4967889;28;20030;-91
2021/07/16 05:28:01;;;;;;;12.45;5.65;;;17.30;99.90;;;;;;4963350;28;20054;-90
2021/07/16 05:30:27;;;;;;;14.43;6.65;;;17.30;99.90;;;;;;5029399;23;20487;-88
2021/07/16 05:32:52;;;;;;;12.20;5.78;;;17.30;99.90;;;;;;5016921;28;20088;-88
2021/07/16 05:35:21;;;;;;;14.95;5.70;;;17.30;99.90;;;;;;5002310;28;20033;-87
2021/07/16 05:37:47;;;;;;;11.32;6.13;;;17.30;99.90;;;;;;5002108;28;20383;-87
2021/07/16 05:40:14;;;;;;;11.23;5.10;;;17.30;99.90;;;;;;4999037;28;20022;-87
2021/07/16 05:42:40;;;;;;;14.82;5.47;;;17.30;99.90;;;;;;4972382;28;20037;-87
2021/07/16 05:45:06;;;;;;;10.75;4.90;;;17.30;99.90;;;;;;4984765;28;20022;-86
2021/07/16 05:47:32;;;;;;;16.45;5.30;;;17.30;99.90;;;;;;5017816;28;20009;-87
2021/07/16 05:49:57;;;;;;;11.45;5.70;;;17.30;99.90;;;;;;4980821;28;20049;-87
2021/07/16 05:52:24;;;;;;;12.15;5.22;;;17.40;99.90;;;;;;5012102;28;20105;-87
2021/07/16 05:54:51;;;;;;;12.48;5.70;;;17.30;99.90;;;;;;4989968;28;20034;-87
2021/07/16 05:57:17;;;;;;;15.52;5.10;;;17.40;99.90;;;;;;4991862;28;20036;-87
2021/07/16 05:59:43;;;;;;;12.68;4.85;;;17.40;99.90;;;;;;4989053;28;20033;-87
2021/07/16 06:02:09;;;;;;;12.40;5.00;;;17.40;99.90;;;;;;5001625;28;20021;-88
2021/07/16 06:04:36;;;;;;;11.85;4.68;;;17.40;99.90;;;;;;5017773;28;20047;-88
2021/07/16 06:07:02;;;;;;;13.50;5.32;;;17.40;99.90;;;;;;5017852;28;20029;-88
2021/07/16 06:09:34;;;;;;;11.18;4.40;;;17.40;99.90;;;;;;5000594;28;20014;-86
2021/07/16 06:11:59;;;;;;;9.70;4.45;;;17.50;99.90;;;;;;4990115;28;20141;-88
2021/07/16 06:14:25;;;;;;;9.68;4.40;;;17.40;99.90;;;;;;4975277;28;20168;-89
2021/07/16 06:16:51;;;;;;;10.13;4.80;;;17.50;99.90;;;;;;4981988;28;20467;-89
2021/07/16 06:19:18;;;;;;;13.55;4.35;;;17.50;99.90;;;;;;5005194;28;20566;-88
2021/07/16 06:21:44;;;;;;;14.05;4.90;;;17.50;99.90;;;;;;5017638;28;20485;-89
2021/07/16 06:24:09;;;;;;;12.48;4.40;;;17.50;99.90;;;;;;5000922;28;20030;-89
2021/07/16 06:26:36;;;;;;;12.27;4.80;;;17.50;99.90;;;;;;5016587;28;20021;-89
2021/07/16 06:29:05;;;;;;;14.43;4.93;;;17.50;99.90;;;;;;5004522;28;20525;-88
2021/07/16 06:31:32;;;;;;;11.43;4.60;;;17.50;99.90;;;;;;5019837;28;20037;-88
2021/07/16 06:33:58;;;;;;;17.23;5.28;;;17.50;99.90;;;;;;5021343;28;20049;-88
2021/07/16 06:36:24;;;;;;;11.93;4.95;;;17.60;99.90;;;;;;5031449;28;20036;-88
2021/07/16 06:38:50;;;;;;;13.75;4.90;;;17.60;99.90;;;;;;5034549;28;20032;-88
2021/07/16 06:41:15;;;;;;;11.85;5.00;;;17.50;99.90;;;;;;5023294;28;20541;-89
2021/07/16 06:43:41;;;;;;;15.20;5.03;;;17.60;99.90;;;;;;5025198;28;20036;-88
2021/07/16 06:46:08;;;;;;;10.98;4.88;;;17.60;99.90;;;;;;5031194;28;20078;-89
2021/07/16 06:48:35;;;;;;;11.75;4.80;;;17.60;99.90;;;;;;5000602;28;20026;-89
2021/07/16 06:51:01;;;;;;;15.27;5.13;;;17.60;99.90;;;;;;5020305;28;20032;-88
2021/07/16 06:53:27;;;;;;;12.52;4.93;;;17.60;99.90;;;;;;5024946;28;20033;-88
2021/07/16 06:55:53;;;;;;;14.90;5.30;;;17.60;99.90;;;;;;5017719;28;20017;-88
2021/07/16 06:58:18;;;;;;;10.57;4.32;;;17.60;99.90;;;;;;5000888;28;20402;-88
2021/07/16 07:00:44;;;;;;;11.50;4.57;;;17.60;99.90;;;;;;5030434;28;20571;-89
2021/07/16 07:03:10;;;;;;;13.55;5.07;;;17.60;99.90;;;;;;5023504;28;20026;-91
2021/07/16 07:05:36;;;;;;;13.85;4.47;;;17.60;99.90;;;;;;5020352;28;20021;-90
2021/07/16 07:08:03;;;;;;;10.85;3.95;;;17.70;99.90;;;;;;5018789;28;20057;-89
2021/07/16 07:10:30;;;;;;;11.25;4.68;;;17.70;99.90;;;;;;5003219;28;20025;-88
2021/07/16 07:12:56;;;;;;;11.25;4.15;;;17.70;99.90;;;;;;5012813;28;20033;-90
2021/07/16 07:15:21;;;;;;;14.32;4.60;;;17.70;99.90;;;;;;5001018;28;20063;-89
2021/07/16 07:17:47;;;;;;;10.95;4.80;;;17.70;99.90;;;;;;5020383;28;20029;-90
2021/07/16 07:20:14;;;;;;;10.77;4.38;;;17.70;99.90;;;;;;5004086;28;20025;-89
2021/07/16 07:22:40;;;;;;;14.57;4.95;;;17.70;99.90;;;;;;5019851;28;20082;-87
2021/07/16 07:25:07;;;;;;;15.90;4.88;;;17.70;99.90;;;;;;5016288;28;20021;-86
2021/07/16 07:27:33;;;;;;;12.65;4.63;;;17.80;99.90;;;;;;5027709;28;20029;-86
2021/07/16 07:29:59;;;;;;;9.68;4.50;;;17.70;99.90;;;;;;5001901;28;20049;-87
2021/07/16 07:32:24;;;;;;;13.98;4.35;;;17.70;99.90;;;;;;5019993;28;20048;-85
2021/07/16 07:34:50;;;;;;;14.75;5.05;;;17.80;99.90;;;;;;5028744;28;20032;-87
2021/07/16 07:37:16;;;;;;;10.85;4.60;;;17.80;99.90;;;;;;5033141;28;20025;-86
2021/07/16 07:39:42;;;;;;;14.90;4.80;;;17.80;99.90;;;;;;5003084;28;20049;-87
2021/07/16 07:42:11;;;;;;;13.60;4.68;;;17.80;99.90;;;;;;5026384;28;20017;-87
2021/07/16 07:44:37;;;;;;;13.73;4.40;;;17.80;99.90;;;;;;5019771;28;20080;-89
2021/07/16 07:47:03;;;;;;;11.10;4.07;;;17.80;99.90;;;;;;5020115;28;20485;-89
2021/07/16 07:49:28;;;;;;;11.52;4.30;;;17.80;99.90;;;;;;5036346;28;20032;-89
2021/07/16 07:51:54;;;;;;;16.55;4.80;;;17.80;99.90;;;;;;5004829;28;20041;-90
2021/07/16 07:54:20;;;;;;;12.35;4.57;;;17.90;99.90;;;;;;5030731;28;20025;-89
2021/07/16 07:56:45;;;;;;;11.30;4.03;;;17.90;99.90;;;;;;5031277;28;20025;-88
2021/07/16 07:59:11;;;;;;;11.25;4.30;;;17.90;99.90;;;;;;5002872;28;20033;-89
2021/07/16 08:01:37;;;;;;;12.48;4.32;;;17.90;99.90;;;;;;5034953;28;20029;-90
2021/07/16 08:04:04;;;;;;;12.05;4.65;;;17.90;99.90;;;;;;5016216;28;20025;-87
2021/07/16 08:06:31;;;;;;;13.52;4.90;;;17.90;99.90;;;;;;5021052;28;20025;-87
2021/07/16 08:08:57;;;;;;;17.83;5.72;;;17.90;99.90;;;;;;5020732;28;20018;-88
2021/07/16 08:11:23;;;;;;;11.75;4.75;;;17.90;99.90;;;;;;5017319;28;20040;-87
2021/07/16 08:13:49;;;;;;;10.63;4.28;;;17.90;99.90;;;;;;5022778;28;20025;-88
2021/07/16 08:16:15;;;;;;;11.73;4.25;;;18.00;99.90;;;;;;5050718;28;20032;-87
2021/07/16 08:18:40;;;;;;;11.32;4.55;;;18.00;99.90;;;;;;5004990;28;20513;-87
2021/07/16 08:21:06;;;;;;;15.02;4.45;;;18.00;99.90;;;;;;5013587;28;20033;-88
2021/07/16 08:23:32;;;;;;;12.25;4.40;;;18.00;99.90;;;;;;5007617;28;20040;-87
2021/07/16 08:25:58;;;;;;;12.35;4.47;;;18.00;99.90;;;;;;5015221;28;20114;-87
2021/07/16 08:28:23;;;;;;;12.18;4.65;;;18.00;99.90;;;;;;4999877;28;20014;-87
2021/07/16 08:30:49;;;;;;;13.15;4.80;;;18.10;99.90;;;;;;4998775;28;20045;-87
2021/07/16 08:33:15;;;;;;;15.38;4.32;;;18.10;99.90;;;;;;5025834;28;20098;-87
2021/07/16 08:35:41;;;;;;;10.70;4.10;;;18.10;99.90;;;;;;5017672;28;20512;-87
2021/07/16 08:38:06;;;;;;;13.15;4.88;;;18.10;99.90;;;;;;4998446;28;20540;-87
2021/07/16 08:40:33;;;;;;;13.35;4.97;;;18.20;99.90;;;;;;5012412;28;20021;-89
2021/07/16 08:42:59;;;;;;;10.75;4.07;;;18.20;99.90;;;;;;5015064;28;20026;-89
2021/07/16 08:45:26;;;;;;;15.38;5.50;;;18.20;99.90;;;;;;5015551;28;20022;-90
2021/07/16 08:47:52;;;;;;;13.55;4.45;;;18.20;99.90;;;;;;5035488;28;20041;-89
2021/07/16 08:50:19;;;;;;;10.20;4.25;;;18.30;99.90;;;;;;5005381;28;20438;-89
2021/07/16 08:52:46;;;;;;;15.05;5.07;;;18.30;99.90;;;;;;5018649;28;20028;-89
2021/07/16 08:55:14;;;;;;;11.80;4.38;;;18.30;99.90;;;;;;5018175;28;20102;-89
2021/07/16 08:57:41;;;;;;;15.27;5.45;;;18.40;99.90;;;;;;5019029;28;20420;-90
2021/07/16 09:00:11;;;;;;;12.07;4.60;;;18.40;99.90;;;;;;5018415;28;20021;-90
2021/07/16 09:02:56;;;;;;;11.40;4.18;;;18.40;99.90;;;;;;5035215;28;20116;-89
2021/07/16 09:05:34;;;;;;;18.00;5.38;;;18.40;99.90;;;;;;5049942;28;20020;-90
2021/07/16 09:08:00;;;;;;;19.00;5.72;;;18.50;99.90;;;;;;5017436;28;20039;-89
2021/07/16 09:10:27;;;;;;;13.27;4.95;;;18.50;99.90;;;;;;5019193;28;20033;-90
2021/07/16 09:13:03;;;;;;;15.65;5.10;;;18.50;99.90;;;;;;5053447;28;20067;-90
2021/07/16 09:15:30;;;;;;;13.43;4.85;;;18.60;99.90;;;;;;5022720;28;20391;-90
2021/07/16 09:18:19;;;;;;;12.05;4.28;;;18.60;99.90;;;;;;5035581;28;20025;-90
2021/07/16 09:20:45;;;;;;;13.07;4.18;;;18.60;99.90;;;;;;5024343;28;20032;-89
2021/07/16 09:23:19;;;;;;;13.73;4.43;;;18.60;99.90;;;;;;5030251;28;20045;-88
2021/07/16 09:26:07;;;;;;;13.43;4.65;;;18.60;99.90;;;;;;5037967;28;20105;-87
2021/07/16 09:28:33;;;;;;;12.02;5.55;;;18.70;99.90;;;;;;5065589;28;20021;-87
2021/07/16 09:31:21;;;;;;;16.27;5.78;;;18.70;99.90;;;;;;5035643;28;20059;-86
2021/07/16 09:33:51;;;;;;;14.57;5.18;;;18.70;99.90;;;;;;5069256;28;20031;-87
2021/07/16 09:36:29;;;;;;;15.80;4.63;;;18.70;99.90;;;;;;5033872;28;20032;-86
2021/07/16 09:39:04;;;;;;;12.95;4.80;;;18.70;99.90;;;;;;5015591;28;20029;-87
2021/07/16 09:41:31;;;;;;;14.00;5.43;;;18.70;99.90;;;;;;5018616;28;20030;-87
2021/07/16 09:44:03;;;;;;;13.88;4.78;;;18.70;99.90;;;;;;5034341;28;20021;-88
2021/07/16 09:46:29;;;;;;;13.77;5.13;;;18.70;99.90;;;;;;5024120;28;20022;-87
2021/07/16 09:49:10;;;;;;;13.00;5.63;;;18.70;99.90;;;;;;5022259;28;20029;-87
2021/07/16 09:51:41;;;;;;;15.02;5.68;;;18.80;99.90;;;;;;5036219;28;20021;-90
2021/07/16 09:54:11;;;;;;;12.82;5.32;;;18.70;99.90;;;;;;5034499;28;20150;-90
2021/07/16 09:56:37;;;;;;;17.17;5.57;;;18.70;99.90;;;;;;5015620;28;20038;-90
2021/07/16 09:59:09;;;;;;;15.90;5.57;;;18.70;99.90;;;;;;4995939;28;20026;-89
2021/07/16 10:01:43;;;;;;;13.80;5.38;;;18.70;99.90;;;;;;5006400;28;20037;-90
2021/07/16 10:04:19;;;;;;;15.70;5.85;;;18.70;99.90;;;;;;5033911;28;20022;-90
2021/07/16 10:06:47;;;;;;;17.42;5.88;;;18.70;99.90;;;;;;5035296;28;20036;-90
2021/07/16 10:09:14;;;;;;;17.52;5.60;;;18.70;99.90;;;;;;5013071;28;20029;-89
2021/07/16 10:11:44;;;;;;;17.65;6.28;;;18.70;99.90;;;;;;5018026;28;20394;-89
2021/07/16 10:14:12;;;;;;;18.83;5.82;;;18.70;99.90;;;;;;5035573;28;20026;-89
2021/07/16 10:16:41;;;;;;;14.63;5.32;;;18.70;99.90;;;;;;5015713;28;20021;-89
2021/07/16 10:19:07;;;;;;;19.52;6.85;;;18.70;99.90;;;;;;5018254;28;20109;-89
2021/07/16 10:21:37;;;;;;;18.02;5.97;;;18.70;99.90;;;;;;5015972;28;20117;-90
2021/07/16 10:24:03;;;;;;;14.43;5.88;;;18.70;99.90;;;;;;5009727;28;20053;-90
2021/07/16 10:26:30;;;;;;;19.30;5.68;;;18.70;99.90;;;;;;5010242;28;20082;-89
2021/07/16 10:28:55;;;;;;;13.35;5.80;;;18.80;99.90;;;;;;5011224;28;20021;-89
2021/07/16 10:33:57;;;;;;;16.13;5.60;;;18.80;99.90;;;;;;5051288;28;20029;-89
2021/07/16 10:36:38;;;;;;;12.93;5.85;;;18.80;99.90;;;;;;5034778;28;20074;-89
2021/07/16 10:39:08;;;;;;;20.58;6.30;;;18.80;99.90;;;;;;5034009;28;20528;-90
2021/07/16 10:41:37;;;;;;;16.55;5.43;;;18.80;99.90;;;;;;5036710;28;20033;-90
2021/07/16 10:44:04;;;;;;;18.58;6.18;;;18.80;99.90;;;;;;5021545;28;20068;-90
2021/07/16 10:46:35;;;;;;;17.85;6.32;;;18.80;99.90;;;;;;5022276;28;20029;-91
2021/07/16 10:49:09;;;;;;;19.40;6.03;;;18.90;99.90;;;;;;5037487;28;20028;-88
2021/07/16 10:51:36;;;;;;;15.75;6.38;;;18.90;99.90;;;;;;5019355;28;20543;-87
2021/07/16 10:54:05;;;;;;;16.08;5.72;;;18.90;99.90;;;;;;5017446;28;20159;-90
2021/07/16 10:57:12;;;;;;;19.30;6.03;;;19.00;99.90;;;;;;5028420;28;20029;-90
2021/07/16 10:59:45;;;;;;;15.25;5.57;;;19.00;99.90;;;;;;5014971;28;20479;-90
2021/07/16 11:02:42;;;;;;;15.98;5.32;;;19.10;99.90;;;;;;5022889;28;20025;-90
2021/07/16 11:05:34;;;;;;;11.65;4.93;;;19.10;99.90;;;;;;5030926;28;20025;-87
2021/07/16 11:08:02;;;;;;;13.80;4.88;;;19.10;99.90;;;;;;5027279;28;20029;-87
2021/07/16 11:10:47;;;;;;;16.88;5.75;;;19.20;99.90;;;;;;5023066;28;20025;-88
2021/07/16 11:13:35;;;;;;;13.52;5.85;;;19.20;99.90;;;;;;5035872;28;20016;-88
2021/07/16 11:16:24;;;;;;;16.67;5.65;;;19.20;99.90;;;;;;5023439;28;20528;-85
2021/07/16 11:19:04;;;;;;;20.27;6.45;;;19.20;99.90;;;;;;5018078;28;20095;-86
2021/07/16 11:21:39;;;;;;;15.95;6.15;;;19.20;99.90;;;;;;5034511;28;20068;-87
2021/07/16 11:24:24;;;;;;;16.50;6.00;;;19.20;99.90;;;;;;5025616;28;20034;-86
2021/07/16 11:27:10;;;;;;;16.30;5.85;;;19.20;99.90;;;;;;5003704;28;20021;-88
2021/07/16 11:29:42;;;;;;;14.07;5.47;;;19.20;99.90;;;;;;5043528;23;20057;-87
2021/07/16 11:32:08;;;;;;;17.95;6.22;;;19.20;99.90;;;;;;5028583;28;20029;-87
2021/07/16 11:34:37;;;;;;;15.20;6.18;;;19.20;99.90;;;;;;5014408;28;20045;-86
2021/07/16 11:37:04;;;;;;;12.48;5.40;;;19.30;99.90;;;;;;5014238;28;20057;-86
2021/07/16 11:39:34;;;;;;;22.92;6.90;;;19.30;99.90;;;;;;5017853;28;20049;-87
2021/07/16 11:42:02;;;;;;;14.80;5.95;;;19.30;99.90;;;;;;5010245;28;20033;-86
2021/07/16 11:44:38;;;;;;;15.27;6.05;;;19.30;99.90;;;;;;5003588;28;20030;-86
2021/07/16 11:47:18;;;;;;;14.30;6.03;;;19.30;99.90;;;;;;5017697;28;20025;-88
2021/07/16 11:50:00;;;;;;;16.80;6.43;;;19.30;99.90;;;;;;5038642;28;20094;-87
2021/07/16 11:52:31;;;;;;;20.90;6.28;;;19.40;99.90;;;;;;5015063;28;20036;-87
2021/07/16 11:55:21;;;;;;;16.30;6.47;;;19.40;99.90;;;;;;5027965;28;20025;-87
2021/07/16 11:57:48;;;;;;;23.63;6.15;;;19.40;99.90;;;;;;5018325;28;20025;-88
2021/07/16 12:00:14;;;;;;;15.07;5.72;;;19.50;99.90;;;;;;5024084;28;20026;-87
2021/07/16 12:02:40;;;;;;;14.50;5.80;;;19.40;99.90;;;;;;5024831;28;20075;-87
2021/07/16 12:05:08;;;;;;;13.93;5.45;;;19.50;99.90;;;;;;5023151;28;20093;-87
2021/07/16 12:07:44;;;;;;;13.90;5.65;;;19.60;99.90;;;;;;4998501;28;20045;-87
2021/07/16 12:10:18;;;;;;;14.40;5.20;;;19.60;99.90;;;;;;5038097;28;20032;-87
2021/07/16 12:12:45;;;;;;;14.50;5.05;;;19.60;99.90;;;;;;5019334;28;20100;-87
2021/07/16 12:15:21;;;;;;;14.02;5.57;;;19.60;99.90;;;;;;5031882;28;20029;-87
2021/07/16 12:18:00;;;;;;;16.98;5.78;;;19.60;99.90;;;;;;5031202;28;20013;-87
2021/07/16 12:20:41;;;;;;;18.08;5.97;;;19.70;99.90;;;;;;5029683;28;20085;-87
2021/07/16 12:23:13;;;;;;;16.63;5.88;;;19.70;99.90;;;;;;5042174;28;20092;-87
2021/07/16 12:25:44;;;;;;;15.65;5.43;;;19.70;99.90;;;;;;5037317;28;20026;-87
2021/07/16 12:28:20;;;;;;;14.52;5.50;;;19.70;99.90;;;;;;5039498;28;20020;-87
2021/07/16 12:30:48;;;;;;;16.42;6.00;;;19.80;99.90;;;;;;4998503;28;20101;-87
2021/07/16 12:33:15;;;;;;;18.70;5.53;;;19.70;99.90;;;;;;5007152;28;20101;-87
2021/07/16 12:35:43;;;;;;;19.88;6.65;;;19.80;99.90;;;;;;5015110;28;20021;-88
2021/07/16 12:38:17;;;;;;;17.42;6.05;;;19.80;99.90;;;;;;5008791;28;20045;-87
2021/07/16 12:40:44;;;;;;;14.02;5.43;;;19.80;99.90;;;;;;5011133;28;20088;-88
2021/07/16 12:46:33;;;;;;;17.33;6.07;;;19.80;99.90;;;;;;5022555;28;20053;-88
2021/07/16 12:49:12;;;;;;;15.75;5.75;;;19.80;99.90;;;;;;5011616;28;20080;-87
2021/07/16 12:51:39;;;;;;;16.95;5.00;;;19.90;99.90;;;;;;4996182;28;20030;-87